sensor_id;sensor_type;location;lat;lon;timestamp;temperature;humidity
5172;DHT22;2605;49.770;9.868;2023-06-26T00:02:11;20.10;99.90
5172;DHT22;2605;49.770;9.868;2023-06-26T00:04:37;20.00;99.90
5172;DHT22;2605;49.770;9.868;2023-06-26T00:07:03;19.90;99.90
5172;DHT22;2605;49.770;9.868;2023-06-26T00:09:29;20.00;99.90
5172;DHT22;2605;49.770;9.868;2023-06-26T00:11:54;20.10;99.90
5172;DHT22;2605;49.770;9.868;2023-06-26T00:14:20;20.20;99.90
5172;DHT22;2605;49.770;9.868;2023-06-26T00:16:46;20.20;99.90
5172;DHT22;2605;49.770;9.868;2023-06-26T00:19:12;20.20;99.90
5172;DHT22;2605;49.770;9.868;2023-06-26T00:21:37;20.20;99.90
5172;DHT22;2605;49.770;9.868;2023-06-26T00:24:03;20.20;99.90
5172;DHT22;2605;49.770;9.868;2023-06-26T00:26:28;20.20;99.90
5172;DHT22;2605;49.770;9.868;2023-06-26T00:28:54;20.30;99.90
5172;DHT22;2605;49.770;9.868;2023-06-26T00:31:19;20.20;99.90
5172;DHT22;2605;49.770;9.868;2023-06-26T00:33:45;20.20;99.90
5172;DHT22;2605;49.770;9.868;2023-06-26T00:36:11;20.10;99.90
5172;DHT22;2605;49.770;9.868;2023-06-26T00:38:36;20.00;99.90
5172;DHT22;2605;49.770;9.868;2023-06-26T00:41:02;20.00;99.90
5172;DHT22;2605;49.770;9.868;2023-06-26T00:43:27;20.10;99.90
5172;DHT22;2605;49.770;9.868;2023-06-26T00:45:53;20.10;99.90
5172;DHT22;2605;49.770;9.868;2023-06-26T00:48:18;20.10;99.90
5172;DHT22;2605;49.770;9.868;2023-06-26T00:50:44;20.10;99.90
5172;DHT22;2605;49.770;9.868;2023-06-26T00:53:14;20.00;99.90
5172;DHT22;2605;49.770;9.868;2023-06-26T00:55:39;20.00;99.90
5172;DHT22;2605;49.770;9.868;2023-06-26T00:58:04;19.80;99.90
5172;DHT22;2605;49.770;9.868;2023-06-26T01:00:31;19.70;99.90
5172;DHT22;2605;49.770;9.868;2023-06-26T01:02:57;19.70;99.90
5172;DHT22;2605;49.770;9.868;2023-06-26T01:05:25;19.70;99.90
5172;DHT22;2605;49.770;9.868;2023-06-26T01:07:50;19.60;99.90
5172;DHT22;2605;49.770;9.868;2023-06-26T01:10:16;19.50;99.90
5172;DHT22;2605;49.770;9.868;2023-06-26T01:12:42;19.60;99.90
5172;DHT22;2605;49.770;9.868;2023-06-26T01:15:08;19.40;99.90
5172;DHT22;2605;49.770;9.868;2023-06-26T01:17:36;19.50;99.90
5172;DHT22;2605;49.770;9.868;2023-06-26T01:20:05;19.30;99.90
5172;DHT22;2605;49.770;9.868;2023-06-26T01:23:05;19.30;99.90
5172;DHT22;2605;49.770;9.868;2023-06-26T01:25:40;19.30;99.90
5172;DHT22;2605;49.770;9.868;2023-06-26T01:28:07;19.20;99.90
5172;DHT22;2605;49.770;9.868;2023-06-26T01:30:37;19.10;99.90
5172;DHT22;2605;49.770;9.868;2023-06-26T01:33:03;19.00;99.90
5172;DHT22;2605;49.770;9.868;2023-06-26T01:35:30;18.90;99.90
5172;DHT22;2605;49.770;9.868;2023-06-26T01:38:11;18.90;99.90
5172;DHT22;2605;49.770;9.868;2023-06-26T01:40:37;18.80;99.90
5172;DHT22;2605;49.770;9.868;2023-06-26T01:43:03;18.70;99.90
5172;DHT22;2605;49.770;9.868;2023-06-26T01:45:31;18.70;99.90
5172;DHT22;2605;49.770;9.868;2023-06-26T01:48:00;18.60;99.90
5172;DHT22;2605;49.770;9.868;2023-06-26T01:50:28;18.50;99.90
5172;DHT22;2605;49.770;9.868;2023-06-26T01:53:10;18.50;99.90
5172;DHT22;2605;49.770;9.868;2023-06-26T01:55:47;18.40;99.90
5172;DHT22;2605;49.770;9.868;2023-06-26T01:58:17;18.30;99.90
5172;DHT22;2605;49.770;9.868;2023-06-26T02:00:45;18.20;99.90
5172;DHT22;2605;49.770;9.868;2023-06-26T02:03:11;18.20;99.90
5172;DHT22;2605;49.770;9.868;2023-06-26T02:05:36;18.10;99.90
5172;DHT22;2605;49.770;9.868;2023-06-26T02:08:02;18.10;99.90
5172;DHT22;2605;49.770;9.868;2023-06-26T02:10:28;18.00;99.90
5172;DHT22;2605;49.770;9.868;2023-06-26T02:12:53;18.00;99.90
5172;DHT22;2605;49.770;9.868;2023-06-26T02:15:19;17.90;99.90
5172;DHT22;2605;49.770;9.868;2023-06-26T02:17:44;17.90;99.90
5172;DHT22;2605;49.770;9.868;2023-06-26T02:20:14;18.00;99.90
5172;DHT22;2605;49.770;9.868;2023-06-26T02:22:39;17.90;99.90
5172;DHT22;2605;49.770;9.868;2023-06-26T02:25:05;17.80;99.90
5172;DHT22;2605;49.770;9.868;2023-06-26T02:27:31;17.80;99.90
5172;DHT22;2605;49.770;9.868;2023-06-26T02:29:56;17.70;99.90
5172;DHT22;2605;49.770;9.868;2023-06-26T02:32:22;17.70;99.90
5172;DHT22;2605;49.770;9.868;2023-06-26T02:34:47;17.70;99.90
5172;DHT22;2605;49.770;9.868;2023-06-26T02:37:13;17.50;99.90
5172;DHT22;2605;49.770;9.868;2023-06-26T02:39:39;17.50;99.90
5172;DHT22;2605;49.770;9.868;2023-06-26T02:42:05;17.40;99.90
5172;DHT22;2605;49.770;9.868;2023-06-26T02:44:30;17.40;99.90
5172;DHT22;2605;49.770;9.868;2023-06-26T02:46:56;17.40;99.90
5172;DHT22;2605;49.770;9.868;2023-06-26T02:49:21;17.40;99.90
5172;DHT22;2605;49.770;9.868;2023-06-26T02:51:46;17.30;99.90
5172;DHT22;2605;49.770;9.868;2023-06-26T02:54:12;17.20;99.90
5172;DHT22;2605;49.770;9.868;2023-06-26T02:56:38;17.30;99.90
5172;DHT22;2605;49.770;9.868;2023-06-26T02:59:03;17.20;99.90
5172;DHT22;2605;49.770;9.868;2023-06-26T03:01:29;17.20;99.90
5172;DHT22;2605;49.770;9.868;2023-06-26T03:03:54;17.10;99.90
5172;DHT22;2605;49.770;9.868;2023-06-26T03:06:23;17.10;99.90
5172;DHT22;2605;49.770;9.868;2023-06-26T03:08:48;17.00;99.90
5172;DHT22;2605;49.770;9.868;2023-06-26T03:11:14;17.10;99.90
5172;DHT22;2605;49.770;9.868;2023-06-26T03:13:39;17.00;99.90
5172;DHT22;2605;49.770;9.868;2023-06-26T03:16:05;16.90;99.90
5172;DHT22;2605;49.770;9.868;2023-06-26T03:18:30;16.90;99.90
5172;DHT22;2605;49.770;9.868;2023-06-26T03:20:56;16.90;99.90
5172;DHT22;2605;49.770;9.868;2023-06-26T03:23:22;16.90;99.90
5172;DHT22;2605;49.770;9.868;2023-06-26T03:25:48;16.90;99.90
5172;DHT22;2605;49.770;9.868;2023-06-26T03:28:14;16.80;99.90
5172;DHT22;2605;49.770;9.868;2023-06-26T03:30:40;16.80;99.90
5172;DHT22;2605;49.770;9.868;2023-06-26T03:33:05;16.80;99.90
5172;DHT22;2605;49.770;9.868;2023-06-26T03:35:31;16.80;99.90
5172;DHT22;2605;49.770;9.868;2023-06-26T03:37:57;16.80;99.90
5172;DHT22;2605;49.770;9.868;2023-06-26T03:40:23;16.80;99.90
5172;DHT22;2605;49.770;9.868;2023-06-26T03:42:48;16.70;99.90
5172;DHT22;2605;49.770;9.868;2023-06-26T03:45:13;16.70;99.90
5172;DHT22;2605;49.770;9.868;2023-06-26T03:47:39;16.80;99.90
5172;DHT22;2605;49.770;9.868;2023-06-26T03:50:05;16.70;99.90
5172;DHT22;2605;49.770;9.868;2023-06-26T03:52:30;16.70;99.90
5172;DHT22;2605;49.770;9.868;2023-06-26T03:54:57;16.80;99.90
5172;DHT22;2605;49.770;9.868;2023-06-26T03:57:23;16.80;99.90
5172;DHT22;2605;49.770;9.868;2023-06-26T03:59:49;16.80;99.90
5172;DHT22;2605;49.770;9.868;2023-06-26T04:02:14;16.90;99.90
5172;DHT22;2605;49.770;9.868;2023-06-26T04:04:40;16.90;99.90
5172;DHT22;2605;49.770;9.868;2023-06-26T04:07:05;16.90;99.90
5172;DHT22;2605;49.770;9.868;2023-06-26T04:09:31;16.90;99.90
5172;DHT22;2605;49.770;9.868;2023-06-26T04:11:56;16.90;99.90
5172;DHT22;2605;49.770;9.868;2023-06-26T04:14:22;16.90;99.90
5172;DHT22;2605;49.770;9.868;2023-06-26T04:16:47;17.00;99.90
5172;DHT22;2605;49.770;9.868;2023-06-26T04:19:13;17.00;99.90
5172;DHT22;2605;49.770;9.868;2023-06-26T04:21:39;17.10;99.90
5172;DHT22;2605;49.770;9.868;2023-06-26T04:24:05;17.20;99.90
5172;DHT22;2605;49.770;9.868;2023-06-26T04:26:30;17.30;99.90
5172;DHT22;2605;49.770;9.868;2023-06-26T04:28:56;17.40;99.90
5172;DHT22;2605;49.770;9.868;2023-06-26T04:31:21;17.50;99.90
5172;DHT22;2605;49.770;9.868;2023-06-26T04:33:47;17.50;99.90
5172;DHT22;2605;49.770;9.868;2023-06-26T04:36:17;17.60;99.90
5172;DHT22;2605;49.770;9.868;2023-06-26T04:38:43;17.70;99.90
5172;DHT22;2605;49.770;9.868;2023-06-26T04:41:08;17.70;99.90
5172;DHT22;2605;49.770;9.868;2023-06-26T04:43:34;17.80;99.90
5172;DHT22;2605;49.770;9.868;2023-06-26T04:45:59;17.90;99.90
5172;DHT22;2605;49.770;9.868;2023-06-26T04:48:25;17.90;99.90
5172;DHT22;2605;49.770;9.868;2023-06-26T04:50:53;17.90;99.90
5172;DHT22;2605;49.770;9.868;2023-06-26T04:53:20;18.00;99.90
5172;DHT22;2605;49.770;9.868;2023-06-26T04:55:46;18.10;99.90
5172;DHT22;2605;49.770;9.868;2023-06-26T04:58:11;18.10;99.90
5172;DHT22;2605;49.770;9.868;2023-06-26T05:00:37;18.20;99.90
5172;DHT22;2605;49.770;9.868;2023-06-26T05:03:02;18.20;99.90
5172;DHT22;2605;49.770;9.868;2023-06-26T05:05:28;18.30;99.90
5172;DHT22;2605;49.770;9.868;2023-06-26T05:07:54;18.40;99.90
5172;DHT22;2605;49.770;9.868;2023-06-26T05:10:20;18.50;99.90
5172;DHT22;2605;49.770;9.868;2023-06-26T05:12:46;18.50;99.90
5172;DHT22;2605;49.770;9.868;2023-06-26T05:15:11;18.50;99.90
5172;DHT22;2605;49.770;9.868;2023-06-26T05:17:37;18.60;99.90
5172;DHT22;2605;49.770;9.868;2023-06-26T05:20:02;18.70;99.90
5172;DHT22;2605;49.770;9.868;2023-06-26T05:22:29;18.80;99.90
5172;DHT22;2605;49.770;9.868;2023-06-26T05:24:55;18.80;99.90
5172;DHT22;2605;49.770;9.868;2023-06-26T05:27:24;18.80;99.90
5172;DHT22;2605;49.770;9.868;2023-06-26T05:29:50;18.90;99.90
5172;DHT22;2605;49.770;9.868;2023-06-26T05:32:16;19.00;99.90
5172;DHT22;2605;49.770;9.868;2023-06-26T05:34:49;19.00;99.90
5172;DHT22;2605;49.770;9.868;2023-06-26T05:37:21;19.10;99.90
5172;DHT22;2605;49.770;9.868;2023-06-26T05:39:47;19.10;99.90
5172;DHT22;2605;49.770;9.868;2023-06-26T05:42:13;19.20;99.90
5172;DHT22;2605;49.770;9.868;2023-06-26T05:44:39;19.30;99.90
5172;DHT22;2605;49.770;9.868;2023-06-26T05:47:04;19.30;99.90
5172;DHT22;2605;49.770;9.868;2023-06-26T05:49:30;19.30;99.90
5172;DHT22;2605;49.770;9.868;2023-06-26T05:51:56;19.40;99.90
5172;DHT22;2605;49.770;9.868;2023-06-26T05:54:23;19.50;99.90
5172;DHT22;2605;49.770;9.868;2023-06-26T05:56:51;19.60;99.90
5172;DHT22;2605;49.770;9.868;2023-06-26T05:59:19;19.60;99.90
5172;DHT22;2605;49.770;9.868;2023-06-26T06:01:44;19.70;99.90
5172;DHT22;2605;49.770;9.868;2023-06-26T06:04:10;19.80;99.90
5172;DHT22;2605;49.770;9.868;2023-06-26T06:06:35;19.90;99.90
5172;DHT22;2605;49.770;9.868;2023-06-26T06:09:01;19.90;99.90
5172;DHT22;2605;49.770;9.868;2023-06-26T06:11:26;20.00;99.90
5172;DHT22;2605;49.770;9.868;2023-06-26T06:13:52;20.10;99.90
5172;DHT22;2605;49.770;9.868;2023-06-26T06:16:17;20.20;99.90
5172;DHT22;2605;49.770;9.868;2023-06-26T06:18:43;20.30;99.90
5172;DHT22;2605;49.770;9.868;2023-06-26T06:21:08;20.50;99.90
5172;DHT22;2605;49.770;9.868;2023-06-26T06:23:34;20.70;99.90
5172;DHT22;2605;49.770;9.868;2023-06-26T06:25:59;21.00;99.90
5172;DHT22;2605;49.770;9.868;2023-06-26T06:28:24;21.10;99.90
5172;DHT22;2605;49.770;9.868;2023-06-26T06:30:50;21.20;99.90
5172;DHT22;2605;49.770;9.868;2023-06-26T06:33:15;21.30;99.90
5172;DHT22;2605;49.770;9.868;2023-06-26T06:35:41;21.40;99.90
5172;DHT22;2605;49.770;9.868;2023-06-26T06:38:06;21.50;99.90
5172;DHT22;2605;49.770;9.868;2023-06-26T06:40:35;21.70;99.90
5172;DHT22;2605;49.770;9.868;2023-06-26T06:43:00;21.90;99.90
5172;DHT22;2605;49.770;9.868;2023-06-26T06:45:26;22.20;99.90
5172;DHT22;2605;49.770;9.868;2023-06-26T06:47:51;22.50;99.90
5172;DHT22;2605;49.770;9.868;2023-06-26T06:50:17;22.70;99.90
5172;DHT22;2605;49.770;9.868;2023-06-26T06:52:43;22.90;99.90
5172;DHT22;2605;49.770;9.868;2023-06-26T06:55:09;23.10;99.90
5172;DHT22;2605;49.770;9.868;2023-06-26T06:57:39;23.20;99.90
5172;DHT22;2605;49.770;9.868;2023-06-26T07:02:34;23.30;99.90
5172;DHT22;2605;49.770;9.868;2023-06-26T07:05:01;23.50;99.90
5172;DHT22;2605;49.770;9.868;2023-06-26T07:07:29;23.70;99.90
5172;DHT22;2605;49.770;9.868;2023-06-26T07:09:56;23.60;99.90
5172;DHT22;2605;49.770;9.868;2023-06-26T07:12:22;23.70;99.90
5172;DHT22;2605;49.770;9.868;2023-06-26T07:14:47;23.80;99.90
5172;DHT22;2605;49.770;9.868;2023-06-26T07:17:13;23.80;99.90
5172;DHT22;2605;49.770;9.868;2023-06-26T07:19:38;24.10;99.90
5172;DHT22;2605;49.770;9.868;2023-06-26T07:22:04;24.30;99.90
5172;DHT22;2605;49.770;9.868;2023-06-26T07:24:29;24.30;99.90
5172;DHT22;2605;49.770;9.868;2023-06-26T07:26:54;24.20;99.90
5172;DHT22;2605;49.770;9.868;2023-06-26T07:29:20;24.40;99.90
5172;DHT22;2605;49.770;9.868;2023-06-26T07:31:46;24.50;99.90
5172;DHT22;2605;49.770;9.868;2023-06-26T07:34:13;24.60;99.90
5172;DHT22;2605;49.770;9.868;2023-06-26T07:36:39;24.60;99.90
5172;DHT22;2605;49.770;9.868;2023-06-26T07:39:04;24.70;99.90
5172;DHT22;2605;49.770;9.868;2023-06-26T07:41:29;24.80;99.90
5172;DHT22;2605;49.770;9.868;2023-06-26T07:43:57;25.00;99.90
5172;DHT22;2605;49.770;9.868;2023-06-26T07:46:23;25.20;99.90
5172;DHT22;2605;49.770;9.868;2023-06-26T07:48:49;25.20;99.90
5172;DHT22;2605;49.770;9.868;2023-06-26T07:51:14;25.20;99.90
5172;DHT22;2605;49.770;9.868;2023-06-26T07:53:39;25.10;99.90
5172;DHT22;2605;49.770;9.868;2023-06-26T07:56:05;25.30;99.90
5172;DHT22;2605;49.770;9.868;2023-06-26T07:58:31;25.50;99.90
5172;DHT22;2605;49.770;9.868;2023-06-26T08:00:56;25.70;99.90
5172;DHT22;2605;49.770;9.868;2023-06-26T08:03:21;25.90;99.90
5172;DHT22;2605;49.770;9.868;2023-06-26T08:05:47;26.00;99.90
5172;DHT22;2605;49.770;9.868;2023-06-26T08:08:13;26.10;99.90
5172;DHT22;2605;49.770;9.868;2023-06-26T08:10:38;26.30;99.90
5172;DHT22;2605;49.770;9.868;2023-06-26T08:13:04;26.60;99.90
5172;DHT22;2605;49.770;9.868;2023-06-26T08:15:29;26.80;99.90
5172;DHT22;2605;49.770;9.868;2023-06-26T08:17:55;26.70;99.90
5172;DHT22;2605;49.770;9.868;2023-06-26T08:20:20;26.60;99.90
5172;DHT22;2605;49.770;9.868;2023-06-26T08:22:47;26.70;99.90
5172;DHT22;2605;49.770;9.868;2023-06-26T08:25:14;26.60;99.90
5172;DHT22;2605;49.770;9.868;2023-06-26T08:27:40;26.70;99.90
5172;DHT22;2605;49.770;9.868;2023-06-26T08:30:06;26.70;99.90
5172;DHT22;2605;49.770;9.868;2023-06-26T08:32:31;26.90;99.90
5172;DHT22;2605;49.770;9.868;2023-06-26T08:34:57;27.10;99.90
5172;DHT22;2605;49.770;9.868;2023-06-26T08:37:22;27.30;99.90
5172;DHT22;2605;49.770;9.868;2023-06-26T08:39:48;27.50;99.90
5172;DHT22;2605;49.770;9.868;2023-06-26T08:42:14;27.70;99.90
5172;DHT22;2605;49.770;9.868;2023-06-26T08:44:40;27.60;99.90
5172;DHT22;2605;49.770;9.868;2023-06-26T08:47:05;27.80;99.90
5172;DHT22;2605;49.770;9.868;2023-06-26T08:49:53;27.80;99.90
5172;DHT22;2605;49.770;9.868;2023-06-26T08:52:27;27.80;99.90
5172;DHT22;2605;49.770;9.868;2023-06-26T08:54:57;27.80;99.90
5172;DHT22;2605;49.770;9.868;2023-06-26T08:57:23;28.00;99.90
5172;DHT22;2605;49.770;9.868;2023-06-26T08:59:51;28.00;99.90
5172;DHT22;2605;49.770;9.868;2023-06-26T09:02:17;28.00;99.90
5172;DHT22;2605;49.770;9.868;2023-06-26T09:04:42;27.80;99.90
5172;DHT22;2605;49.770;9.868;2023-06-26T09:07:08;27.80;99.90
5172;DHT22;2605;49.770;9.868;2023-06-26T09:09:33;27.90;99.90
5172;DHT22;2605;49.770;9.868;2023-06-26T09:11:59;27.90;99.90
5172;DHT22;2605;49.770;9.868;2023-06-26T09:14:24;28.20;99.90
5172;DHT22;2605;49.770;9.868;2023-06-26T09:16:50;28.50;99.90
5172;DHT22;2605;49.770;9.868;2023-06-26T09:19:15;28.30;99.90
5172;DHT22;2605;49.770;9.868;2023-06-26T09:21:42;28.40;99.90
5172;DHT22;2605;49.770;9.868;2023-06-26T09:24:09;28.40;99.90
5172;DHT22;2605;49.770;9.868;2023-06-26T09:26:39;28.40;99.90
5172;DHT22;2605;49.770;9.868;2023-06-26T09:29:05;28.60;99.90
5172;DHT22;2605;49.770;9.868;2023-06-26T09:31:31;28.70;99.90
5172;DHT22;2605;49.770;9.868;2023-06-26T09:34:00;29.00;99.90
5172;DHT22;2605;49.770;9.868;2023-06-26T09:36:29;28.90;99.90
5172;DHT22;2605;49.770;9.868;2023-06-26T09:39:05;28.90;99.90
5172;DHT22;2605;49.770;9.868;2023-06-26T09:41:34;28.80;99.90
5172;DHT22;2605;49.770;9.868;2023-06-26T09:44:04;28.90;99.90
5172;DHT22;2605;49.770;9.868;2023-06-26T09:46:30;28.80;99.90
5172;DHT22;2605;49.770;9.868;2023-06-26T09:49:08;28.90;99.90
5172;DHT22;2605;49.770;9.868;2023-06-26T09:51:38;29.00;99.90
5172;DHT22;2605;49.770;9.868;2023-06-26T09:54:05;29.00;99.90
5172;DHT22;2605;49.770;9.868;2023-06-26T09:56:31;28.90;99.90
5172;DHT22;2605;49.770;9.868;2023-06-26T09:58:59;29.00;99.90
5172;DHT22;2605;49.770;9.868;2023-06-26T10:01:25;29.00;99.90
5172;DHT22;2605;49.770;9.868;2023-06-26T10:03:51;29.20;99.90
5172;DHT22;2605;49.770;9.868;2023-06-26T10:06:26;29.40;99.90
5172;DHT22;2605;49.770;9.868;2023-06-26T10:08:53;29.40;99.90
5172;DHT22;2605;49.770;9.868;2023-06-26T10:11:21;29.50;99.90
5172;DHT22;2605;49.770;9.868;2023-06-26T10:13:49;29.50;99.90
5172;DHT22;2605;49.770;9.868;2023-06-26T10:16:26;29.50;99.90
5172;DHT22;2605;49.770;9.868;2023-06-26T10:18:54;29.50;99.90
5172;DHT22;2605;49.770;9.868;2023-06-26T10:21:22;29.70;99.90
5172;DHT22;2605;49.770;9.868;2023-06-26T10:23:49;29.80;99.90
5172;DHT22;2605;49.770;9.868;2023-06-26T10:26:16;29.90;99.90
5172;DHT22;2605;49.770;9.868;2023-06-26T10:28:44;30.10;99.90
5172;DHT22;2605;49.770;9.868;2023-06-26T10:31:11;30.00;99.90
5172;DHT22;2605;49.770;9.868;2023-06-26T10:33:37;29.90;99.90
5172;DHT22;2605;49.770;9.868;2023-06-26T10:36:14;29.60;99.90
5172;DHT22;2605;49.770;9.868;2023-06-26T10:38:54;29.50;99.90
5172;DHT22;2605;49.770;9.868;2023-06-26T10:41:21;29.40;99.90
5172;DHT22;2605;49.770;9.868;2023-06-26T10:43:49;29.60;99.90
5172;DHT22;2605;49.770;9.868;2023-06-26T10:46:15;29.70;99.90
5172;DHT22;2605;49.770;9.868;2023-06-26T10:48:58;29.90;99.90
5172;DHT22;2605;49.770;9.868;2023-06-26T10:51:27;29.70;99.90
5172;DHT22;2605;49.770;9.868;2023-06-26T10:53:56;29.70;99.90
5172;DHT22;2605;49.770;9.868;2023-06-26T10:56:41;29.90;99.90
5172;DHT22;2605;49.770;9.868;2023-06-26T10:59:18;29.70;99.90
5172;DHT22;2605;49.770;9.868;2023-06-26T11:01:45;29.50;99.90
5172;DHT22;2605;49.770;9.868;2023-06-26T11:04:13;29.70;99.90
5172;DHT22;2605;49.770;9.868;2023-06-26T11:06:41;30.00;99.90
5172;DHT22;2605;49.770;9.868;2023-06-26T11:09:08;30.10;99.90
5172;DHT22;2605;49.770;9.868;2023-06-26T11:14:18;30.20;99.90
5172;DHT22;2605;49.770;9.868;2023-06-26T11:16:44;30.40;99.90
5172;DHT22;2605;49.770;9.868;2023-06-26T11:19:10;30.30;99.90
5172;DHT22;2605;49.770;9.868;2023-06-26T11:21:38;30.40;99.90
5172;DHT22;2605;49.770;9.868;2023-06-26T11:24:05;30.50;99.90
5172;DHT22;2605;49.770;9.868;2023-06-26T11:26:38;30.20;99.90
5172;DHT22;2605;49.770;9.868;2023-06-26T11:29:04;30.10;99.90
5172;DHT22;2605;49.770;9.868;2023-06-26T11:31:34;30.30;99.90
5172;DHT22;2605;49.770;9.868;2023-06-26T11:34:04;30.40;99.90
5172;DHT22;2605;49.770;9.868;2023-06-26T11:36:30;30.00;99.90
5172;DHT22;2605;49.770;9.868;2023-06-26T11:38:57;29.80;99.90
5172;DHT22;2605;49.770;9.868;2023-06-26T11:41:25;30.10;99.90
5172;DHT22;2605;49.770;9.868;2023-06-26T11:43:52;30.10;99.90
5172;DHT22;2605;49.770;9.868;2023-06-26T11:46:19;30.30;99.90
5172;DHT22;2605;49.770;9.868;2023-06-26T11:48:45;30.20;99.90
5172;DHT22;2605;49.770;9.868;2023-06-26T11:51:13;30.50;99.90
5172;DHT22;2605;49.770;9.868;2023-06-26T11:53:41;30.30;99.90
5172;DHT22;2605;49.770;9.868;2023-06-26T11:56:10;30.60;99.90
5172;DHT22;2605;49.770;9.868;2023-06-26T11:58:54;30.40;99.90
5172;DHT22;2605;49.770;9.868;2023-06-26T12:01:20;29.90;99.90
5172;DHT22;2605;49.770;9.868;2023-06-26T12:03:46;29.70;99.90
5172;DHT22;2605;49.770;9.868;2023-06-26T12:06:12;29.80;99.90
5172;DHT22;2605;49.770;9.868;2023-06-26T12:08:37;29.70;99.90
5172;DHT22;2605;49.770;9.868;2023-06-26T12:11:03;29.40;99.90
5172;DHT22;2605;49.770;9.868;2023-06-26T12:13:30;29.50;99.90
5172;DHT22;2605;49.770;9.868;2023-06-26T12:15:57;29.40;99.90
5172;DHT22;2605;49.770;9.868;2023-06-26T12:18:23;29.60;99.90
5172;DHT22;2605;49.770;9.868;2023-06-26T12:20:51;29.70;99.90
5172;DHT22;2605;49.770;9.868;2023-06-26T12:23:16;29.50;99.90
5172;DHT22;2605;49.770;9.868;2023-06-26T12:25:42;29.50;99.90
5172;DHT22;2605;49.770;9.868;2023-06-26T12:28:18;29.30;99.90
5172;DHT22;2605;49.770;9.868;2023-06-26T12:30:47;29.70;99.90
5172;DHT22;2605;49.770;9.868;2023-06-26T12:33:36;30.30;99.90
5172;DHT22;2605;49.770;9.868;2023-06-26T12:36:04;29.80;99.90
5172;DHT22;2605;49.770;9.868;2023-06-26T12:38:33;29.30;99.90
5172;DHT22;2605;49.770;9.868;2023-06-26T12:40:59;29.30;99.90
5172;DHT22;2605;49.770;9.868;2023-06-26T12:43:26;29.40;99.90
5172;DHT22;2605;49.770;9.868;2023-06-26T12:45:55;29.50;99.90
5172;DHT22;2605;49.770;9.868;2023-06-26T12:48:21;29.70;99.90
5172;DHT22;2605;49.770;9.868;2023-06-26T12:50:47;29.50;99.90
5172;DHT22;2605;49.770;9.868;2023-06-26T12:53:13;29.50;99.90
5172;DHT22;2605;49.770;9.868;2023-06-26T12:55:39;29.60;99.90
5172;DHT22;2605;49.770;9.868;2023-06-26T12:58:04;29.50;99.90
5172;DHT22;2605;49.770;9.868;2023-06-26T13:00:30;29.50;99.90
5172;DHT22;2605;49.770;9.868;2023-06-26T13:02:57;29.20;99.90
5172;DHT22;2605;49.770;9.868;2023-06-26T13:05:23;29.20;99.90
5172;DHT22;2605;49.770;9.868;2023-06-26T13:07:49;28.70;99.90
5172;DHT22;2605;49.770;9.868;2023-06-26T13:10:14;29.00;99.90
5172;DHT22;2605;49.770;9.868;2023-06-26T13:12:40;28.90;99.90
5172;DHT22;2605;49.770;9.868;2023-06-26T13:15:06;28.50;99.90
5172;DHT22;2605;49.770;9.868;2023-06-26T13:17:32;28.70;99.90
5172;DHT22;2605;49.770;9.868;2023-06-26T13:19:58;28.80;99.90
5172;DHT22;2605;49.770;9.868;2023-06-26T13:22:23;28.10;99.90
5172;DHT22;2605;49.770;9.868;2023-06-26T13:24:49;28.40;99.90
5172;DHT22;2605;49.770;9.868;2023-06-26T13:27:14;28.50;99.90
5172;DHT22;2605;49.770;9.868;2023-06-26T13:29:41;28.50;99.90
5172;DHT22;2605;49.770;9.868;2023-06-26T13:32:07;28.70;99.90
5172;DHT22;2605;49.770;9.868;2023-06-26T13:34:33;29.10;99.90
5172;DHT22;2605;49.770;9.868;2023-06-26T13:36:58;29.00;99.90
5172;DHT22;2605;49.770;9.868;2023-06-26T13:39:25;29.10;99.90
5172;DHT22;2605;49.770;9.868;2023-06-26T13:41:50;28.90;99.90
5172;DHT22;2605;49.770;9.868;2023-06-26T13:44:16;28.90;99.90
5172;DHT22;2605;49.770;9.868;2023-06-26T13:46:41;29.30;99.90
5172;DHT22;2605;49.770;9.868;2023-06-26T13:49:07;29.30;99.90
5172;DHT22;2605;49.770;9.868;2023-06-26T13:51:33;29.50;99.90
5172;DHT22;2605;49.770;9.868;2023-06-26T13:53:58;29.20;99.90
5172;DHT22;2605;49.770;9.868;2023-06-26T13:56:26;29.40;99.90
5172;DHT22;2605;49.770;9.868;2023-06-26T13:58:51;29.80;99.90
5172;DHT22;2605;49.770;9.868;2023-06-26T14:01:17;30.40;99.90
5172;DHT22;2605;49.770;9.868;2023-06-26T14:03:42;30.10;99.90
5172;DHT22;2605;49.770;9.868;2023-06-26T14:06:08;30.50;99.90
5172;DHT22;2605;49.770;9.868;2023-06-26T14:08:33;31.00;99.90
5172;DHT22;2605;49.770;9.868;2023-06-26T14:10:59;31.10;99.90
5172;DHT22;2605;49.770;9.868;2023-06-26T14:13:25;31.40;99.90
5172;DHT22;2605;49.770;9.868;2023-06-26T14:15:50;30.00;99.90
5172;DHT22;2605;49.770;9.868;2023-06-26T14:18:18;30.10;99.90
5172;DHT22;2605;49.770;9.868;2023-06-26T14:20:43;30.60;99.90
5172;DHT22;2605;49.770;9.868;2023-06-26T14:23:09;31.10;99.90
5172;DHT22;2605;49.770;9.868;2023-06-26T14:25:35;31.20;99.90
5172;DHT22;2605;49.770;9.868;2023-06-26T14:28:01;31.20;99.90
5172;DHT22;2605;49.770;9.868;2023-06-26T14:30:26;30.10;99.90
5172;DHT22;2605;49.770;9.868;2023-06-26T14:32:52;30.30;99.90
5172;DHT22;2605;49.770;9.868;2023-06-26T14:35:18;30.00;99.90
5172;DHT22;2605;49.770;9.868;2023-06-26T14:37:43;30.70;99.90
5172;DHT22;2605;49.770;9.868;2023-06-26T14:40:09;30.20;99.90
5172;DHT22;2605;49.770;9.868;2023-06-26T14:42:35;30.10;99.90
5172;DHT22;2605;49.770;9.868;2023-06-26T14:45:01;29.70;99.90
5172;DHT22;2605;49.770;9.868;2023-06-26T14:47:29;31.70;99.90
5172;DHT22;2605;49.770;9.868;2023-06-26T14:49:55;33.10;99.90
5172;DHT22;2605;49.770;9.868;2023-06-26T14:52:20;32.70;99.90
5172;DHT22;2605;49.770;9.868;2023-06-26T14:54:46;31.80;99.90
5172;DHT22;2605;49.770;9.868;2023-06-26T14:57:11;32.00;99.90
5172;DHT22;2605;49.770;9.868;2023-06-26T14:59:37;31.60;99.90
5172;DHT22;2605;49.770;9.868;2023-06-26T15:02:02;32.30;99.90
5172;DHT22;2605;49.770;9.868;2023-06-26T15:04:28;32.60;99.90
5172;DHT22;2605;49.770;9.868;2023-06-26T15:06:56;33.60;99.90
5172;DHT22;2605;49.770;9.868;2023-06-26T15:09:22;32.60;99.90
5172;DHT22;2605;49.770;9.868;2023-06-26T15:11:49;31.70;99.90
5172;DHT22;2605;49.770;9.868;2023-06-26T15:14:14;30.80;99.90
5172;DHT22;2605;49.770;9.868;2023-06-26T15:16:39;30.20;99.90
5172;DHT22;2605;49.770;9.868;2023-06-26T15:19:05;29.50;99.90
5172;DHT22;2605;49.770;9.868;2023-06-26T15:21:31;29.40;99.90
5172;DHT22;2605;49.770;9.868;2023-06-26T15:23:56;29.10;99.90
5172;DHT22;2605;49.770;9.868;2023-06-26T15:26:22;29.50;99.90
5172;DHT22;2605;49.770;9.868;2023-06-26T15:28:47;30.10;99.90
5172;DHT22;2605;49.770;9.868;2023-06-26T15:31:13;30.90;99.90
5172;DHT22;2605;49.770;9.868;2023-06-26T15:33:38;30.90;99.90
5172;DHT22;2605;49.770;9.868;2023-06-26T15:36:05;32.00;99.90
5172;DHT22;2605;49.770;9.868;2023-06-26T15:38:30;32.00;99.90
5172;DHT22;2605;49.770;9.868;2023-06-26T15:40:56;31.80;99.90
5172;DHT22;2605;49.770;9.868;2023-06-26T15:43:21;31.50;99.90
5172;DHT22;2605;49.770;9.868;2023-06-26T15:45:47;30.20;99.90
5172;DHT22;2605;49.770;9.868;2023-06-26T15:48:13;30.00;99.90
5172;DHT22;2605;49.770;9.868;2023-06-26T15:50:38;29.40;99.90
5172;DHT22;2605;49.770;9.868;2023-06-26T15:53:06;28.80;99.90
5172;DHT22;2605;49.770;9.868;2023-06-26T15:55:32;28.20;99.90
5172;DHT22;2605;49.770;9.868;2023-06-26T15:57:57;27.80;99.90
5172;DHT22;2605;49.770;9.868;2023-06-26T16:00:23;28.20;99.90
5172;DHT22;2605;49.770;9.868;2023-06-26T16:02:49;29.20;99.90
5172;DHT22;2605;49.770;9.868;2023-06-26T16:05:14;29.90;99.90